Time;durP1;ratioP1;P1;durP2;ratioP2;P2;SDS_P1;SDS_P2;PMS_P1;PMS_P2;Temp;Humidity;BMP_temperature;BMP_pressure;BME280_temperature;BME280_humidity;BME280_pressure;Samples;Min_cycle;Max_cycle;Signal;HPM_P1;HPM_P2
2023/11/26 00:01:16;;;;;;;1.90;0.75;;;;;;;;;;6155488;23;20043;-87
2023/11/26 00:03:44;;;;;;;1.65;0.52;;;;;;;;;;6155332;23;20029;-87
2023/11/26 00:06:11;;;;;;;1.45;0.57;;;;;;;;;;6155466;23;20032;-87
2023/11/26 00:08:38;;;;;;;3.30;0.75;;;;;;;;;;6155781;23;20029;-87
2023/11/26 00:11:06;;;;;;;0.55;0.55;;;;;;;;;;6155781;23;20367;-88
2023/11/26 00:13:33;;;;;;;1.52;0.60;;;;;;;;;;6155495;23;20477;-87
2023/11/26 00:16:02;;;;;;;0.50;0.50;;;;;;;;;;6155859;23;20048;-87
2023/11/26 00:18:29;;;;;;;4.22;2.65;;;;;;;;;;6155894;23;20025;-86
2023/11/26 00:20:57;;;;;;;2.90;1.20;;;;;;;;;;6155366;23;20017;-86
2023/11/26 00:23:24;;;;;;;1.55;0.80;;;;;;;;;;6156408;23;20368;-87
2023/11/26 00:25:51;;;;;;;2.00;0.80;;;;;;;;;;6156577;23;20088;-87
2023/11/26 00:28:19;;;;;;;0.90;0.70;;;;;;;;;;6181261;23;20013;-87
2023/11/26 00:30:46;;;;;;;0.95;0.80;;;;;;;;;;6155080;23;20098;-87
2023/11/26 00:33:15;;;;;;;0.93;0.93;;;;;;;;;;6180582;23;20047;-87
2023/11/26 00:35:43;;;;;;;2.60;1.80;;;;;;;;;;6180915;23;20086;-87
2023/11/26 00:38:11;;;;;;;1.52;1.00;;;;;;;;;;6155001;23;20022;-87
2023/11/26 00:40:38;;;;;;;3.42;1.48;;;;;;;;;;6181261;23;20381;-87
2023/11/26 00:43:06;;;;;;;2.35;0.60;;;;;;;;;;6155440;23;20346;-87
2023/11/26 00:45:33;;;;;;;0.70;0.60;;;;;;;;;;6154393;23;20491;-85
2023/11/26 00:48:00;;;;;;;0.80;0.70;;;;;;;;;;6154898;23;20017;-87
2023/11/26 00:50:27;;;;;;;2.08;0.93;;;;;;;;;;6154968;23;20074;-87
2023/11/26 00:52:55;;;;;;;0.75;0.60;;;;;;;;;;6180567;23;20029;-87
2023/11/26 00:55:23;;;;;;;1.58;0.70;;;;;;;;;;6180337;23;20078;-87
2023/11/26 00:57:50;;;;;;;2.35;0.88;;;;;;;;;;6180860;23;20025;-87
2023/11/26 01:00:18;;;;;;;1.90;0.80;;;;;;;;;;6154591;23;20032;-87
2023/11/26 01:02:47;;;;;;;2.80;0.80;;;;;;;;;;6155027;23;20021;-87
2023/11/26 01:05:14;;;;;;;1.10;0.65;;;;;;;;;;6154489;23;20099;-87
2023/11/26 01:07:42;;;;;;;0.52;0.52;;;;;;;;;;6155110;23;20029;-87
2023/11/26 01:10:10;;;;;;;1.23;0.68;;;;;;;;;;6155065;23;20098;-87
2023/11/26 01:12:38;;;;;;;2.80;0.63;;;;;;;;;;6181003;23;20082;-87
2023/11/26 01:15:08;;;;;;;1.15;0.60;;;;;;;;;;6181993;23;20017;-87
2023/11/26 01:17:35;;;;;;;0.57;0.57;;;;;;;;;;6155943;23;20458;-87
2023/11/26 01:20:08;;;;;;;3.33;0.60;;;;;;;;;;6156345;23;20025;-87
2023/11/26 01:22:36;;;;;;;1.30;0.82;;;;;;;;;;6156052;23;20523;-87
2023/11/26 01:25:05;;;;;;;1.08;0.70;;;;;;;;;;6181259;23;20078;-87
2023/11/26 01:27:33;;;;;;;1.63;0.70;;;;;;;;;;6156367;23;20165;-87
2023/11/26 01:30:00;;;;;;;1.23;1.13;;;;;;;;;;6182564;23;20349;-87
2023/11/26 01:32:31;;;;;;;1.25;1.15;;;;;;;;;;6156603;23;20134;-87
2023/11/26 01:34:59;;;;;;;1.48;0.47;;;;;;;;;;6156392;23;20100;-88
2023/11/26 01:37:26;;;;;;;2.03;0.90;;;;;;;;;;6155996;23;20500;-87
2023/11/26 01:39:53;;;;;;;2.15;0.82;;;;;;;;;;6156153;23;20029;-87
2023/11/26 01:42:21;;;;;;;1.08;1.00;;;;;;;;;;6182374;23;20385;-87
2023/11/26 01:44:48;;;;;;;1.58;0.88;;;;;;;;;;6156389;23;20017;-87
2023/11/26 01:47:15;;;;;;;1.55;0.90;;;;;;;;;;6156425;23;20350;-87
2023/11/26 01:49:43;;;;;;;1.75;0.77;;;;;;;;;;6182223;23;20027;-87
2023/11/26 01:52:11;;;;;;;3.15;0.90;;;;;;;;;;6181965;23;20362;-87
2023/11/26 01:54:39;;;;;;;1.27;1.00;;;;;;;;;;6155900;23;20025;-87
2023/11/26 01:57:08;;;;;;;0.88;0.80;;;;;;;;;;6182084;23;20040;-87
2023/11/26 01:59:35;;;;;;;1.00;1.00;;;;;;;;;;6156149;23;20025;-87
2023/11/26 02:02:03;;;;;;;3.42;1.40;;;;;;;;;;6156275;23;20028;-87
2023/11/26 02:04:30;;;;;;;3.35;1.80;;;;;;;;;;6181494;23;20082;-87
2023/11/26 02:06:58;;;;;;;5.60;1.90;;;;;;;;;;6156178;23;20381;-87
2023/11/26 02:09:25;;;;;;;3.10;1.60;;;;;;;;;;6156348;23;20028;-87
2023/11/26 02:11:52;;;;;;;2.60;1.60;;;;;;;;;;6156491;23;20017;-87
2023/11/26 02:14:20;;;;;;;1.40;1.30;;;;;;;;;;6155871;23;20466;-87
2023/11/26 02:16:47;;;;;;;3.45;1.33;;;;;;;;;;6155977;23;20476;-87
2023/11/26 02:19:27;;;;;;;4.80;1.50;;;;;;;;;;6156280;23;20024;-86
2023/11/26 02:21:54;;;;;;;2.03;1.48;;;;;;;;;;6156304;23;20025;-88
2023/11/26 02:24:41;;;;;;;1.70;1.30;;;;;;;;;;6155707;23;20021;-86
2023/11/26 02:27:08;;;;;;;2.90;1.58;;;;;;;;;;6156826;23;20438;-87
2023/11/26 02:29:36;;;;;;;1.77;1.63;;;;;;;;;;6181562;23;20013;-86
2023/11/26 02:32:03;;;;;;;2.03;0.90;;;;;;;;;;6182035;23;20033;-87
2023/11/26 02:34:31;;;;;;;1.20;1.10;;;;;;;;;;6182061;23;20060;-87
2023/11/26 02:36:58;;;;;;;1.48;1.38;;;;;;;;;;6156252;23;20024;-87
2023/11/26 02:39:28;;;;;;;2.20;1.50;;;;;;;;;;6155879;23;20527;-87
2023/11/26 02:41:58;;;;;;;2.58;1.60;;;;;;;;;;6156186;23;20020;-87
2023/11/26 02:44:25;;;;;;;2.92;2.10;;;;;;;;;;6155820;23;20017;-87
2023/11/26 02:46:53;;;;;;;4.47;1.98;;;;;;;;;;6156024;23;20021;-88
2023/11/26 02:49:20;;;;;;;2.65;2.20;;;;;;;;;;6156034;23;20022;-87
2023/11/26 02:51:47;;;;;;;1.90;1.75;;;;;;;;;;6155870;23;20511;-87
2023/11/26 02:54:14;;;;;;;2.25;1.58;;;;;;;;;;6156483;23;20074;-87
2023/11/26 02:56:43;;;;;;;2.55;1.40;;;;;;;;;;6181834;23;20328;-87
2023/11/26 02:59:11;;;;;;;2.08;1.70;;;;;;;;;;6156078;23;20032;-87
2023/11/26 03:01:39;;;;;;;3.50;2.20;;;;;;;;;;6155380;22;20013;-87
2023/11/26 03:04:07;;;;;;;3.58;1.80;;;;;;;;;;6155473;23;20021;-87
2023/11/26 03:06:35;;;;;;;4.28;3.15;;;;;;;;;;6156092;23;20391;-86
2023/11/26 03:09:37;;;;;;;4.80;2.97;;;;;;;;;;6155335;23;20025;-87
2023/11/26 03:14:45;;;;;;;3.75;2.15;;;;;;;;;;6181143;22;20017;-87
2023/11/26 03:17:16;;;;;;;4.75;2.20;;;;;;;;;;6155706;23;20021;-87
2023/11/26 03:19:45;;;;;;;4.60;2.22;;;;;;;;;;6155699;23;20029;-87
2023/11/26 03:22:12;;;;;;;4.30;1.80;;;;;;;;;;6155385;23;20470;-87
2023/11/26 03:24:40;;;;;;;1.70;1.60;;;;;;;;;;6155539;23;20043;-87
2023/11/26 03:27:08;;;;;;;2.47;1.60;;;;;;;;;;6156466;23;20021;-87
2023/11/26 03:29:35;;;;;;;7.88;3.05;;;;;;;;;;6155901;23;20032;-87
2023/11/26 03:32:02;;;;;;;7.38;3.83;;;;;;;;;;6156424;23;20079;-87
2023/11/26 03:34:30;;;;;;;8.55;3.08;;;;;;;;;;6155423;23;20025;-86
2023/11/26 03:36:57;;;;;;;8.70;4.38;;;;;;;;;;6181045;23;20107;-87
2023/11/26 03:39:24;;;;;;;17.60;7.20;;;;;;;;;;6155604;23;20047;-86
2023/11/26 03:41:52;;;;;;;18.50;5.53;;;;;;;;;;6155553;23;20032;-86
2023/11/26 03:44:19;;;;;;;7.82;4.32;;;;;;;;;;6155134;23;20021;-86
2023/11/26 03:46:46;;;;;;;6.55;4.40;;;;;;;;;;6181088;23;20400;-87
2023/11/26 03:49:14;;;;;;;6.50;3.55;;;;;;;;;;6181618;23;20029;-86
2023/11/26 03:51:41;;;;;;;6.25;4.28;;;;;;;;;;6155460;23;20078;-86
2023/11/26 03:54:08;;;;;;;5.22;2.78;;;;;;;;;;6155475;23;20105;-87
2023/11/26 03:56:36;;;;;;;4.45;2.90;;;;;;;;;;6155376;23;20071;-86
2023/11/26 03:59:03;;;;;;;6.03;3.72;;;;;;;;;;6154779;23;20028;-86
2023/11/26 04:01:30;;;;;;;5.93;2.78;;;;;;;;;;6155343;23;20104;-85
2023/11/26 04:03:58;;;;;;;3.53;2.58;;;;;;;;;;6155491;23;20085;-86
2023/11/26 04:06:26;;;;;;;5.32;1.92;;;;;;;;;;6155567;23;20056;-87
2023/11/26 04:08:54;;;;;;;2.25;2.05;;;;;;;;;;6155534;23;20086;-86
2023/11/26 04:11:21;;;;;;;2.38;2.17;;;;;;;;;;6181653;23;20053;-86
2023/11/26 04:13:48;;;;;;;2.78;2.55;;;;;;;;;;6155451;23;20349;-86
2023/11/26 04:16:18;;;;;;;3.22;2.65;;;;;;;;;;6180620;23;20025;-86
2023/11/26 04:18:46;;;;;;;3.50;2.85;;;;;;;;;;6154801;22;20021;-86
2023/11/26 04:21:13;;;;;;;4.03;2.00;;;;;;;;;;6155491;23;20029;-86
2023/11/26 04:23:40;;;;;;;2.72;2.13;;;;;;;;;;6155685;23;20021;-86
2023/11/26 04:26:09;;;;;;;1.98;1.88;;;;;;;;;;6155096;23;20078;-86
2023/11/26 04:28:37;;;;;;;4.55;2.10;;;;;;;;;;6154752;23;20048;-86
2023/11/26 04:31:04;;;;;;;2.25;1.88;;;;;;;;;;6155476;23;20025;-86
2023/11/26 04:33:31;;;;;;;2.60;1.83;;;;;;;;;;6154972;23;20057;-86
2023/11/26 04:35:59;;;;;;;4.30;2.20;;;;;;;;;;6155112;23;20098;-86
2023/11/26 04:38:27;;;;;;;2.95;2.75;;;;;;;;;;6155302;23;20021;-86
2023/11/26 04:40:55;;;;;;;2.85;2.65;;;;;;;;;;6180931;23;20112;-86
2023/11/26 04:43:22;;;;;;;2.90;2.50;;;;;;;;;;6155318;23;20025;-86
2023/11/26 04:45:50;;;;;;;6.32;1.80;;;;;;;;;;6154823;23;20021;-86
2023/11/26 04:48:17;;;;;;;7.57;5.15;;;;;;;;;;6155596;23;20385;-86
2023/11/26 04:50:44;;;;;;;4.35;1.77;;;;;;;;;;6156383;23;20025;-86
2023/11/26 04:53:12;;;;;;;1.52;1.00;;;;;;;;;;6156075;23;20025;-86
2023/11/26 04:55:39;;;;;;;1.17;0.95;;;;;;;;;;6155479;23;20430;-86
2023/11/26 04:58:06;;;;;;;1.85;0.90;;;;;;;;;;6156364;23;20384;-86
2023/11/26 05:00:34;;;;;;;1.85;1.13;;;;;;;;;;6155961;23;20021;-86
2023/11/26 05:03:03;;;;;;;4.82;2.00;;;;;;;;;;6182322;23;20067;-87
2023/11/26 05:05:31;;;;;;;1.85;0.95;;;;;;;;;;6155211;22;20392;-86
2023/11/26 05:07:58;;;;;;;3.22;1.13;;;;;;;;;;6182017;23;20025;-86
2023/11/26 05:10:28;;;;;;;2.92;0.95;;;;;;;;;;6156275;23;20029;-86
2023/11/26 05:12:56;;;;;;;1.58;0.73;;;;;;;;;;6156517;23;20025;-86
2023/11/26 05:15:23;;;;;;;0.70;0.70;;;;;;;;;;6181884;23;20060;-86
2023/11/26 05:17:50;;;;;;;1.15;0.90;;;;;;;;;;6155677;23;20037;-87
2023/11/26 05:20:18;;;;;;;1.40;0.57;;;;;;;;;;6181677;23;20028;-87
2023/11/26 05:22:46;;;;;;;0.88;0.40;;;;;;;;;;6155489;23;20031;-86
2023/11/26 05:25:14;;;;;;;1.05;0.55;;;;;;;;;;6155574;23;20089;-86
2023/11/26 05:27:41;;;;;;;2.67;0.75;;;;;;;;;;6182342;23;20438;-87
2023/11/26 05:30:10;;;;;;;0.52;0.50;;;;;;;;;;6156250;23;20070;-86
2023/11/26 05:32:37;;;;;;;0.50;0.50;;;;;;;;;;6182159;23;20024;-87
2023/11/26 05:35:12;;;;;;;2.42;0.70;;;;;;;;;;6181639;23;20024;-86
2023/11/26 05:37:40;;;;;;;0.50;0.50;;;;;;;;;;6156629;23;20382;-86
2023/11/26 05:40:09;;;;;;;0.77;0.40;;;;;;;;;;6155706;23;20028;-86
2023/11/26 05:42:37;;;;;;;1.17;1.02;;;;;;;;;;6156435;23;20074;-86
2023/11/26 05:45:05;;;;;;;1.27;1.20;;;;;;;;;;6181718;23;20094;-87
2023/11/26 05:47:32;;;;;;;3.92;1.65;;;;;;;;;;6156079;23;20028;-86
2023/11/26 05:50:00;;;;;;;1.42;1.10;;;;;;;;;;6156275;23;20017;-86
2023/11/26 05:52:27;;;;;;;1.20;0.90;;;;;;;;;;6155426;23;20340;-86
2023/11/26 05:54:54;;;;;;;0.70;0.68;;;;;;;;;;6154100;23;20484;-86
2023/11/26 05:57:23;;;;;;;2.42;1.08;;;;;;;;;;6179954;23;20327;-85
2023/11/26 05:59:51;;;;;;;0.90;0.90;;;;;;;;;;6154018;23;20092;-86
2023/11/26 06:02:18;;;;;;;1.83;1.10;;;;;;;;;;6154144;23;20025;-85
2023/11/26 06:04:45;;;;;;;1.40;1.05;;;;;;;;;;6154305;23;20025;-86
2023/11/26 06:07:13;;;;;;;1.98;1.17;;;;;;;;;;6180465;23;20082;-86
2023/11/26 06:09:40;;;;;;;1.90;1.10;;;;;;;;;;6153637;23;20096;-86
2023/11/26 06:12:08;;;;;;;7.22;3.45;;;;;;;;;;6154507;23;20032;-86
2023/11/26 06:14:35;;;;;;;20.95;9.23;;;;;;;;;;6153907;23;20021;-85
2023/11/26 06:17:03;;;;;;;25.48;11.38;;;;;;;;;;6154152;23;20084;-86
2023/11/26 06:19:30;;;;;;;18.52;8.80;;;;;;;;;;6154516;23;20179;-86
2023/11/26 06:21:57;;;;;;;27.98;11.45;;;;;;;;;;6153794;23;20527;-86
2023/11/26 06:24:24;;;;;;;12.32;5.07;;;;;;;;;;6179607;23;20024;-85
2023/11/26 06:26:55;;;;;;;13.20;7.15;;;;;;;;;;6153763;23;20045;-85
2023/11/26 06:29:22;;;;;;;12.13;6.43;;;;;;;;;;6179583;23;20327;-85
2023/11/26 06:31:49;;;;;;;11.93;5.38;;;;;;;;;;6153715;23;20021;-86
2023/11/26 06:34:18;;;;;;;7.93;4.47;;;;;;;;;;6153935;23;20029;-86
2023/11/26 06:36:45;;;;;;;6.30;3.88;;;;;;;;;;6155349;23;20029;-86
2023/11/26 06:39:14;;;;;;;5.95;2.75;;;;;;;;;;6182566;23;20021;-86
2023/11/26 06:41:42;;;;;;;7.00;4.22;;;;;;;;;;6153832;23;20017;-86
2023/11/26 06:44:10;;;;;;;4.15;2.45;;;;;;;;;;6153658;23;20025;-86
2023/11/26 06:46:37;;;;;;;1.98;1.50;;;;;;;;;;6153783;23;20315;-86
2023/11/26 06:49:04;;;;;;;1.45;1.33;;;;;;;;;;6154181;23;20100;-85
2023/11/26 06:51:32;;;;;;;2.15;1.50;;;;;;;;;;6179754;23;20082;-86
2023/11/26 06:53:59;;;;;;;2.95;1.75;;;;;;;;;;6134798;23;1081812;-85
2023/11/26 06:56:26;;;;;;;2.00;1.63;;;;;;;;;;6155031;23;20066;-86
2023/11/26 06:58:53;;;;;;;2.22;1.30;;;;;;;;;;6181699;23;20025;-86
2023/11/26 07:01:20;;;;;;;2.92;1.45;;;;;;;;;;6155283;23;20384;-86
2023/11/26 07:03:48;;;;;;;1.60;1.50;;;;;;;;;;6155452;23;20021;-86
2023/11/26 07:06:16;;;;;;;4.10;1.38;;;;;;;;;;6155691;23;20029;-86
2023/11/26 07:08:43;;;;;;;2.58;1.30;;;;;;;;;;6155282;23;20021;-86
2023/11/26 07:11:17;;;;;;;14.40;6.53;;;;;;;;;;6154854;23;20096;-86
2023/11/26 07:13:47;;;;;;;2.95;2.03;;;;;;;;;;6155860;23;20021;-87
2023/11/26 07:16:16;;;;;;;5.80;2.88;;;;;;;;;;6155377;23;20421;-86
2023/11/26 07:18:44;;;;;;;3.25;1.90;;;;;;;;;;6152615;23;20022;-86
2023/11/26 07:21:11;;;;;;;3.53;2.08;;;;;;;;;;6154676;23;20017;-87
2023/11/26 07:23:41;;;;;;;2.72;2.30;;;;;;;;;;6154662;23;20032;-86
2023/11/26 07:26:11;;;;;;;2.88;2.05;;;;;;;;;;6153377;23;20086;-86
2023/11/26 07:28:39;;;;;;;2.78;2.00;;;;;;;;;;6155174;23;20446;-87
2023/11/26 07:31:16;;;;;;;16.30;8.27;;;;;;;;;;6154998;23;20028;-84
2023/11/26 07:33:45;;;;;;;22.13;11.63;;;;;;;;;;6180956;23;20021;-84
2023/11/26 07:36:23;;;;;;;19.08;10.40;;;;;;;;;;6180596;23;20029;-84
2023/11/26 07:38:51;;;;;;;14.00;8.63;;;;;;;;;;6154897;23;20450;-84
2023/11/26 07:41:18;;;;;;;11.90;5.50;;;;;;;;;;6180542;23;20086;-84
2023/11/26 07:43:46;;;;;;;4.88;3.40;;;;;;;;;;6154845;23;20020;-84
2023/11/26 07:46:14;;;;;;;6.50;3.90;;;;;;;;;;6154549;23;20025;-84
2023/11/26 07:48:42;;;;;;;8.80;3.85;;;;;;;;;;6154645;23;20025;-84
2023/11/26 07:51:10;;;;;;;10.68;6.78;;;;;;;;;;6154766;23;20025;-84
2023/11/26 07:53:38;;;;;;;4.65;3.35;;;;;;;;;;6154646;23;20017;-85
2023/11/26 07:56:06;;;;;;;7.57;5.20;;;;;;;;;;6154796;23;20064;-84
2023/11/26 07:58:34;;;;;;;19.13;11.18;;;;;;;;;;6180864;23;20025;-84
2023/11/26 08:01:02;;;;;;;17.02;9.50;;;;;;;;;;6154644;23;20025;-84
2023/11/26 08:03:31;;;;;;;6.43;3.88;;;;;;;;;;6181077;23;20054;-84
2023/11/26 08:06:03;;;;;;;7.90;4.57;;;;;;;;;;6154958;23;20406;-83
2023/11/26 08:08:39;;;;;;;7.00;4.63;;;;;;;;;;6154979;23;20017;-85
2023/11/26 08:11:09;;;;;;;8.15;6.00;;;;;;;;;;6154984;23;20029;-84
2023/11/26 08:13:41;;;;;;;4.93;4.10;;;;;;;;;;6154422;23;20059;-84
2023/11/26 08:16:09;;;;;;;3.42;2.47;;;;;;;;;;6180799;23;20064;-84
2023/11/26 08:18:37;;;;;;;23.15;3.20;;;;;;;;;;6180507;23;20021;-84
2023/11/26 08:21:06;;;;;;;2.60;2.40;;;;;;;;;;6180305;23;20021;-84
2023/11/26 08:23:50;;;;;;;7.15;2.30;;;;;;;;;;6155016;23;20100;-84
2023/11/26 08:26:20;;;;;;;;;;;;;;;;;;6155826;23;20048;-84
2023/11/26 08:28:47;;;;;;;4.53;1.90;;;;;;;;;;6180988;23;19916;-84
2023/11/26 08:31:16;;;;;;;2.45;1.70;;;;;;;;;;6154902;23;20401;-84
2023/11/26 08:33:44;;;;;;;2.78;2.40;;;;;;;;;;6154816;23;20021;-84
2023/11/26 08:36:16;;;;;;;3.20;1.83;;;;;;;;;;6154424;23;20472;-84
2023/11/26 08:38:44;;;;;;;2.08;1.50;;;;;;;;;;6180944;23;20021;-84
2023/11/26 08:41:12;;;;;;;1.45;1.35;;;;;;;;;;6154704;23;20021;-84
2023/11/26 08:43:41;;;;;;;3.22;1.38;;;;;;;;;;6155222;23;20021;-85
2023/11/26 08:46:10;;;;;;;1.50;1.40;;;;;;;;;;6180746;23;20025;-85
2023/11/26 08:48:42;;;;;;;2.60;1.60;;;;;;;;;;6156298;23;20017;-84
2023/11/26 08:51:10;;;;;;;2.20;1.90;;;;;;;;;;6155158;23;20345;-85
2023/11/26 08:53:37;;;;;;;1.98;1.20;;;;;;;;;;6154859;23;20368;-85
2023/11/26 08:56:05;;;;;;;1.33;1.23;;;;;;;;;;6155061;23;20025;-85
2023/11/26 08:58:32;;;;;;;1.83;1.20;;;;;;;;;;6155252;23;20028;-86
2023/11/26 09:01:00;;;;;;;2.72;1.50;;;;;;;;;;6181361;23;20025;-85
2023/11/26 09:03:27;;;;;;;3.60;1.25;;;;;;;;;;6154690;23;20024;-85
2023/11/26 09:05:55;;;;;;;3.08;1.20;;;;;;;;;;6154737;23;20132;-85
2023/11/26 09:08:22;;;;;;;1.80;1.35;;;;;;;;;;6181158;23;20092;-85
2023/11/26 09:10:50;;;;;;;1.25;0.98;;;;;;;;;;6155113;23;20017;-85
2023/11/26 09:13:17;;;;;;;0.93;0.75;;;;;;;;;;6154719;23;20025;-86
2023/11/26 09:15:44;;;;;;;0.90;0.85;;;;;;;;;;6180665;23;20021;-86
2023/11/26 09:18:12;;;;;;;0.77;0.77;;;;;;;;;;6155004;23;20102;-86
2023/11/26 09:20:39;;;;;;;1.48;0.70;;;;;;;;;;6154258;23;20021;-86
2023/11/26 09:23:07;;;;;;;1.73;1.10;;;;;;;;;;6180922;23;20029;-86
2023/11/26 09:25:35;;;;;;;1.50;1.00;;;;;;;;;;6154873;23;20021;-88
2023/11/26 09:28:03;;;;;;;0.80;0.80;;;;;;;;;;6155735;23;20070;-88
2023/11/26 09:30:31;;;;;;;1.40;1.15;;;;;;;;;;6155139;23;20021;-87
2023/11/26 09:32:59;;;;;;;2.15;1.30;;;;;;;;;;6155451;23;20392;-89
2023/11/26 09:35:26;;;;;;;3.92;1.50;;;;;;;;;;6156080;23;20029;-88
2023/11/26 09:37:54;;;;;;;0.77;0.77;;;;;;;;;;6182843;23;20021;-88
2023/11/26 09:40:21;;;;;;;1.95;0.93;;;;;;;;;;6156543;23;20025;-88
2023/11/26 09:42:51;;;;;;;1.40;0.85;;;;;;;;;;6182343;23;20442;-87
2023/11/26 09:45:19;;;;;;;0.80;0.80;;;;;;;;;;6157022;23;20029;-86
2023/11/26 09:47:46;;;;;;;2.20;0.80;;;;;;;;;;6187200;23;20025;-87
2023/11/26 09:50:14;;;;;;;1.38;0.60;;;;;;;;;;6159210;23;20025;-87
2023/11/26 09:52:42;;;;;;;0.98;0.45;;;;;;;;;;6155662;23;20085;-86
2023/11/26 09:55:09;;;;;;;0.88;0.47;;;;;;;;;;6155241;23;20025;-87
2023/11/26 09:57:40;;;;;;;0.80;0.60;;;;;;;;;;6155621;23;20290;-87
2023/11/26 10:00:10;;;;;;;1.48;0.65;;;;;;;;;;6155682;23;20025;-87
2023/11/26 10:02:37;;;;;;;2.38;0.65;;;;;;;;;;6156066;23;20056;-86
2023/11/26 10:05:06;;;;;;;1.10;0.70;;;;;;;;;;6155801;23;20068;-86
2023/11/26 10:07:35;;;;;;;0.82;0.60;;;;;;;;;;6156137;23;20029;-86
2023/11/26 10:10:09;;;;;;;1.27;0.60;;;;;;;;;;6181375;23;20017;-86
2023/11/26 10:12:36;;;;;;;;;;;;;;;;;;6156530;23;20096;-86
2023/11/26 10:15:05;;;;;;;0.88;0.50;;;;;;;;;;6155471;23;19916;-87
2023/11/26 10:17:34;;;;;;;2.67;0.68;;;;;;;;;;6155929;23;20071;-85
2023/11/26 10:20:17;;;;;;;1.88;0.50;;;;;;;;;;6181241;23;20032;-86
2023/11/26 10:22:46;;;;;;;0.80;0.55;;;;;;;;;;6155416;23;20338;-86
2023/11/26 10:25:14;;;;;;;2.08;0.50;;;;;;;;;;6181696;23;20324;-87
2023/11/26 10:27:43;;;;;;;2.42;0.75;;;;;;;;;;6181718;23;20261;-87
2023/11/26 10:30:23;;;;;;;2.28;0.60;;;;;;;;;;6155599;23;20384;-86
2023/11/26 10:32:58;;;;;;;0.85;0.50;;;;;;;;;;6155568;23;20018;-87
2023/11/26 10:35:25;;;;;;;1.58;0.70;;;;;;;;;;6154808;22;20021;-87
2023/11/26 10:38:08;;;;;;;1.00;0.55;;;;;;;;;;6155722;23;20021;-86
2023/11/26 10:40:36;;;;;;;0.57;0.57;;;;;;;;;;6155557;23;20040;-87
2023/11/26 10:43:06;;;;;;;1.38;0.60;;;;;;;;;;6155600;23;20021;-86
2023/11/26 10:45:33;;;;;;;1.85;0.90;;;;;;;;;;6154209;23;20021;-87
2023/11/26 10:48:08;;;;;;;1.42;0.60;;;;;;;;;;6155846;23;20021;-86
2023/11/26 10:50:39;;;;;;;1.30;1.10;;;;;;;;;;6155646;23;20453;-86
2023/11/26 10:53:09;;;;;;;2.10;0.90;;;;;;;;;;6154930;23;20026;-86
2023/11/26 10:55:39;;;;;;;1.05;0.93;;;;;;;;;;6155335;23;20052;-86
2023/11/26 10:58:28;;;;;;;0.98;0.60;;;;;;;;;;6180793;23;20526;-86
2023/11/26 11:00:59;;;;;;;1.83;0.60;;;;;;;;;;6181344;23;20029;-86
2023/11/26 11:03:27;;;;;;;2.45;0.80;;;;;;;;;;6155649;23;20017;-86
2023/11/26 11:05:56;;;;;;;0.80;0.80;;;;;;;;;;6154671;23;20025;-86
2023/11/26 11:08:28;;;;;;;1.38;0.68;;;;;;;;;;6156281;23;20021;-86
2023/11/26 11:11:10;;;;;;;0.63;0.60;;;;;;;;;;6155004;23;20017;-86
2023/11/26 11:13:38;;;;;;;0.85;0.70;;;;;;;;;;6155423;23;20021;-86
2023/11/26 11:16:05;;;;;;;1.63;0.50;;;;;;;;;;6154958;23;20077;-86
2023/11/26 11:18:33;;;;;;;0.68;0.50;;;;;;;;;;6155475;23;20021;-86
2023/11/26 11:21:09;;;;;;;0.85;0.75;;;;;;;;;;6181108;23;20052;-85
2023/11/26 11:23:47;;;;;;;2.92;0.70;;;;;;;;;;6155537;23;20074;-86
2023/11/26 11:26:15;;;;;;;1.98;0.63;;;;;;;;;;6155281;23;20076;-86
2023/11/26 11:28:43;;;;;;;0.88;0.70;;;;;;;;;;6181621;23;20017;-87
2023/11/26 11:31:11;;;;;;;1.48;0.50;;;;;;;;;;6181147;23;20048;-85
2023/11/26 11:34:11;;;;;;;0.45;0.45;;;;;;;;;;6155566;23;20029;-86
2023/11/26 11:36:41;;;;;;;0.30;0.30;;;;;;;;;;6181858;23;20024;-87
2023/11/26 11:39:10;;;;;;;1.85;0.50;;;;;;;;;;6181023;23;20086;-86
2023/11/26 11:41:59;;;;;;;2.60;0.60;;;;;;;;;;6181187;23;20024;-86
2023/11/26 11:44:30;;;;;;;0.50;0.50;;;;;;;;;;6155109;23;20083;-87
2023/11/26 11:46:57;;;;;;;1.45;0.70;;;;;;;;;;6181324;23;20082;-86
2023/11/26 11:49:28;;;;;;;0.93;0.82;;;;;;;;;;6155328;23;20056;-87
2023/11/26 11:51:55;;;;;;;1.63;0.60;;;;;;;;;;6154698;23;20487;-86
2023/11/26 11:54:40;;;;;;;2.08;0.95;;;;;;;;;;6180163;23;20371;-86
2023/11/26 11:57:13;;;;;;;1.10;0.60;;;;;;;;;;6181104;23;20098;-86
2023/11/26 11:59:42;;;;;;;1.85;0.68;;;;;;;;;;6154904;23;20021;-86
2023/11/26 12:02:10;;;;;;;1.75;1.00;;;;;;;;;;6155284;23;20021;-86
2023/11/26 12:04:41;;;;;;;1.05;0.73;;;;;;;;;;6154921;23;20017;-86
2023/11/26 12:07:09;;;;;;;2.97;0.70;;;;;;;;;;6181369;23;20052;-86
2023/11/26 12:09:40;;;;;;;0.95;0.85;;;;;;;;;;6155383;23;20070;-87
2023/11/26 12:12:08;;;;;;;0.70;0.70;;;;;;;;;;6155529;23;20083;-86
2023/11/26 12:14:36;;;;;;;1.73;1.08;;;;;;;;;;6181240;23;20025;-86
2023/11/26 12:17:08;;;;;;;4.22;1.20;;;;;;;;;;6155050;23;20032;-86
2023/11/26 12:19:36;;;;;;;2.60;0.80;;;;;;;;;;6180875;23;20468;-86
2023/11/26 12:22:04;;;;;;;2.80;0.90;;;;;;;;;;6181649;23;20078;-86
2023/11/26 12:24:31;;;;;;;2.75;1.13;;;;;;;;;;6155041;23;20021;-86
2023/11/26 12:26:59;;;;;;;1.45;0.80;;;;;;;;;;6154682;23;20040;-86
2023/11/26 12:29:26;;;;;;;1.80;1.08;;;;;;;;;;6155308;23;20090;-86
2023/11/26 12:31:58;;;;;;;2.05;0.90;;;;;;;;;;6155079;23;20115;-86
2023/11/26 12:34:25;;;;;;;3.05;1.40;;;;;;;;;;6181311;23;20454;-86
2023/11/26 12:36:53;;;;;;;2.22;1.27;;;;;;;;;;6155483;23;20022;-86
2023/11/26 12:39:21;;;;;;;3.25;1.58;;;;;;;;;;6155411;23;20388;-87
2023/11/26 12:41:49;;;;;;;4.05;1.20;;;;;;;;;;6181166;23;20025;-86
2023/11/26 12:44:17;;;;;;;2.55;2.00;;;;;;;;;;6154859;23;20323;-86
2023/11/26 12:46:45;;;;;;;2.67;1.45;;;;;;;;;;6155615;23;20075;-86
2023/11/26 12:49:16;;;;;;;3.55;1.40;;;;;;;;;;6155189;23;20048;-86
2023/11/26 12:51:44;;;;;;;2.97;1.92;;;;;;;;;;6181962;23;20075;-86
2023/11/26 12:54:12;;;;;;;1.65;1.50;;;;;;;;;;6158867;23;20031;-86
2023/11/26 12:56:40;;;;;;;4.53;2.53;;;;;;;;;;6158726;23;20029;-86
2023/11/26 12:59:07;;;;;;;9.38;5.13;;;;;;;;;;6181280;23;20457;-86
2023/11/26 13:01:35;;;;;;;4.97;2.85;;;;;;;;;;6155117;23;20533;-85
2023/11/26 13:04:06;;;;;;;5.93;3.55;;;;;;;;;;6154472;23;20055;-85
2023/11/26 13:06:35;;;;;;;5.63;2.85;;;;;;;;;;6154667;23;20101;-86
2023/11/26 13:09:07;;;;;;;4.70;2.80;;;;;;;;;;6155151;23;20048;-86
2023/11/26 13:11:38;;;;;;;3.97;2.63;;;;;;;;;;6155972;23;20033;-86
2023/11/26 13:14:08;;;;;;;3.25;2.35;;;;;;;;;;6155810;23;20338;-86
2023/11/26 13:16:35;;;;;;;2.85;2.58;;;;;;;;;;6155830;23;20024;-87
2023/11/26 13:19:03;;;;;;;2.42;1.88;;;;;;;;;;6155717;23;20315;-86
2023/11/26 13:21:33;;;;;;;2.10;1.88;;;;;;;;;;6156133;23;20036;-87
2023/11/26 13:24:00;;;;;;;4.60;1.92;;;;;;;;;;6155700;23;20032;-87
2023/11/26 13:26:28;;;;;;;2.17;1.60;;;;;;;;;;6182061;23;20021;-86
2023/11/26 13:28:55;;;;;;;4.22;1.80;;;;;;;;;;6156438;23;20045;-86
2023/11/26 13:31:22;;;;;;;2.13;1.92;;;;;;;;;;6182300;23;20071;-86
2023/11/26 13:33:49;;;;;;;3.15;1.75;;;;;;;;;;6155594;23;20024;-86
2023/11/26 13:36:18;;;;;;;2.78;1.70;;;;;;;;;;6155702;23;20021;-85
2023/11/26 13:38:45;;;;;;;2.35;1.70;;;;;;;;;;6155792;23;20082;-86
2023/11/26 13:41:13;;;;;;;5.05;2.92;;;;;;;;;;6181878;23;20047;-86
2023/11/26 13:43:40;;;;;;;2.80;2.35;;;;;;;;;;6156056;23;20047;-87
2023/11/26 13:46:08;;;;;;;3.20;2.30;;;;;;;;;;6155947;23;20104;-86
2023/11/26 13:48:36;;;;;;;2.03;1.80;;;;;;;;;;6155383;23;20031;-86
2023/11/26 13:51:04;;;;;;;2.42;2.22;;;;;;;;;;6155656;23;20104;-86
2023/11/26 13:53:33;;;;;;;3.13;1.80;;;;;;;;;;6155927;23;20049;-86
2023/11/26 13:56:00;;;;;;;2.20;1.98;;;;;;;;;;6155323;23;20515;-85
2023/11/26 13:58:31;;;;;;;11.68;3.28;;;;;;;;;;6155863;23;20021;-86
2023/11/26 14:00:58;;;;;;;4.78;2.60;;;;;;;;;;6182026;23;20025;-88
2023/11/26 14:03:25;;;;;;;4.13;2.97;;;;;;;;;;6156019;23;20017;-87
2023/11/26 14:05:53;;;;;;;6.88;4.13;;;;;;;;;;6181861;23;20388;-88
2023/11/26 14:08:22;;;;;;;4.38;3.42;;;;;;;;;;6156139;23;20032;-87
2023/11/26 14:10:49;;;;;;;2.80;2.60;;;;;;;;;;6156387;23;20105;-88
2023/11/26 14:13:17;;;;;;;2.88;2.40;;;;;;;;;;6156117;23;20021;-88
2023/11/26 14:15:45;;;;;;;3.13;2.63;;;;;;;;;;6155903;23;20025;-88
2023/11/26 14:18:12;;;;;;;2.45;2.10;;;;;;;;;;6181828;23;20097;-87
2023/11/26 14:20:40;;;;;;;3.08;2.88;;;;;;;;;;6155625;23;20469;-87
2023/11/26 14:23:08;;;;;;;2.78;2.40;;;;;;;;;;6156151;23;20021;-87
2023/11/26 14:25:35;;;;;;;2.90;2.70;;;;;;;;;;6181953;23;20025;-87
2023/11/26 14:28:02;;;;;;;4.50;4.03;;;;;;;;;;6155884;23;20013;-87
2023/11/26 14:30:31;;;;;;;2.60;2.28;;;;;;;;;;6155916;23;20029;-88
2023/11/26 14:32:58;;;;;;;2.35;2.20;;;;;;;;;;6155691;23;20473;-88
2023/11/26 14:35:26;;;;;;;2.15;2.05;;;;;;;;;;6156064;23;20040;-88
2023/11/26 14:37:53;;;;;;;2.92;2.03;;;;;;;;;;6181809;23;20024;-88
2023/11/26 14:40:21;;;;;;;2.25;2.08;;;;;;;;;;6155665;23;20052;-88
2023/11/26 14:42:49;;;;;;;1.98;1.88;;;;;;;;;;6155981;23;20025;-88
2023/11/26 14:45:16;;;;;;;2.05;1.95;;;;;;;;;;6181628;23;20021;-87
2023/11/26 14:47:44;;;;;;;2.15;1.80;;;;;;;;;;6156569;23;20020;-87
2023/11/26 14:50:16;;;;;;;2.28;2.08;;;;;;;;;;6156384;23;20017;-87
2023/11/26 14:52:45;;;;;;;2.35;1.60;;;;;;;;;;6155882;23;20100;-87
2023/11/26 14:55:13;;;;;;;1.67;1.58;;;;;;;;;;6155782;23;20021;-87